createdAt,value
2024-05-09T00:00:36.090Z,60.10
2024-05-09T00:03:10.879Z,52.13
2024-05-09T00:05:39.009Z,50.57
2024-05-09T00:08:06.049Z,49.57
2024-05-09T00:10:37.118Z,47.13
2024-05-09T00:13:05.807Z,40.90
2024-05-09T00:15:33.605Z,40.00
2024-05-09T00:18:00.944Z,43.60
2024-05-09T00:20:33.557Z,45.47
2024-05-09T00:23:07.047Z,52.60
2024-05-09T00:25:34.885Z,41.63
2024-05-09T00:28:02.114Z,40.10
2024-05-09T00:30:34.335Z,46.57
2024-05-09T00:33:03.806Z,42.07
2024-05-09T00:35:34.183Z,39.43
2024-05-09T00:38:01.298Z,54.20
2024-05-09T00:40:38.030Z,44.03
2024-05-09T00:43:07.574Z,60.50
2024-05-09T00:45:34.393Z,49.03
2024-05-09T00:48:01.566Z,46.23
2024-05-09T00:50:35.651Z,40.77
2024-05-09T00:53:04.226Z,45.07
2024-05-09T00:55:31.066Z,46.60
2024-05-09T00:57:57.842Z,45.87
2024-05-09T01:00:31.655Z,52.37
2024-05-09T01:03:05.586Z,41.57
2024-05-09T01:05:33.007Z,46.23
2024-05-09T01:07:59.862Z,48.13
2024-05-09T01:10:33.657Z,48.87
2024-05-09T01:13:02.113Z,48.90
2024-05-09T01:15:29.013Z,47.93
2024-05-09T01:17:56.493Z,56.97
2024-05-09T01:20:32.262Z,60.13
2024-05-09T01:23:07.274Z,64.40
2024-05-09T01:25:34.317Z,64.73
2024-05-09T01:28:01.243Z,64.73
2024-05-09T01:30:34.331Z,58.20
2024-05-09T01:33:04.024Z,65.90
2024-05-09T01:35:31.301Z,56.03
2024-05-09T01:37:58.280Z,56.23
2024-05-09T01:40:33.769Z,64.60
2024-05-09T01:43:04.692Z,63.83
2024-05-09T01:45:31.619Z,63.90
2024-05-09T01:47:58.669Z,65.17
2024-05-09T01:50:37.017Z,63.53
2024-05-09T01:53:07.527Z,58.27
2024-05-09T01:55:34.443Z,55.97
2024-05-09T01:58:01.301Z,54.70
2024-05-09T02:00:37.966Z,52.23
2024-05-09T02:03:14.095Z,47.57
2024-05-09T02:05:43.334Z,66.80
2024-05-09T02:08:10.652Z,60.33
2024-05-09T02:10:37.725Z,63.43
2024-05-09T02:13:04.503Z,56.67
2024-05-09T02:15:31.300Z,53.30
2024-05-09T02:17:58.296Z,53.60
2024-05-09T02:20:33.545Z,53.60
2024-05-09T02:23:05.082Z,53.23
2024-05-09T02:25:32.418Z,68.10
2024-05-09T02:27:59.502Z,58.00
2024-05-09T02:30:36.095Z,64.63
2024-05-09T02:33:07.657Z,53.67
2024-05-09T02:35:35.017Z,50.40
2024-05-09T02:38:02.036Z,44.80
2024-05-09T02:40:36.214Z,54.30
2024-05-09T02:43:05.774Z,55.90
2024-05-09T02:45:32.934Z,52.10
2024-05-09T02:48:00.182Z,57.17
2024-05-09T02:50:34.422Z,46.50
2024-05-09T02:53:05.697Z,54.47
2024-05-09T02:55:32.912Z,50.70
2024-05-09T02:58:00.003Z,53.87
2024-05-09T03:00:35.142Z,61.93
2024-05-09T03:03:07.146Z,40.80
2024-05-09T03:05:34.436Z,52.07
2024-05-09T03:08:01.470Z,54.30
2024-05-09T03:10:29.087Z,45.13
2024-05-09T03:13:01.404Z,51.33
2024-05-09T03:15:32.178Z,41.23
2024-05-09T03:18:00.347Z,55.27
2024-05-09T03:20:33.101Z,53.97
2024-05-09T03:23:02.406Z,48.63
2024-05-09T03:25:29.338Z,53.00
2024-05-09T03:27:56.113Z,46.63
2024-05-09T03:30:35.824Z,51.53
2024-05-09T03:33:08.366Z,44.33
2024-05-09T03:35:35.312Z,55.37
2024-05-09T03:38:02.358Z,39.80
2024-05-09T03:40:30.972Z,54.30
2024-05-09T03:42:58.861Z,52.93
2024-05-09T03:45:25.783Z,50.13
2024-05-09T03:47:53.046Z,48.13
2024-05-09T03:50:26.327Z,54.70
2024-05-09T03:53:00.420Z,54.03
2024-05-09T03:55:27.404Z,56.87
2024-05-09T03:57:54.225Z,57.10
2024-05-09T04:00:30.540Z,54.30
2024-05-09T04:03:03.988Z,48.80
2024-05-09T04:05:31.444Z,56.20
2024-05-09T04:07:58.516Z,54.47
2024-05-09T04:10:32.449Z,49.67
2024-05-09T04:13:00.847Z,51.50
2024-05-09T04:15:27.661Z,56.40
2024-05-09T04:17:54.764Z,55.20
2024-05-09T04:20:32.830Z,54.80
2024-05-09T04:23:05.047Z,50.07
2024-05-09T04:25:31.805Z,46.27
2024-05-09T04:27:58.595Z,50.00
2024-05-09T04:30:34.628Z,49.90
2024-05-09T04:33:06.446Z,54.03
2024-05-09T04:35:34.089Z,55.77
2024-05-09T04:38:01.306Z,50.60
2024-05-09T04:40:33.438Z,55.43
2024-05-09T04:43:02.712Z,61.43
2024-05-09T04:45:29.520Z,65.83
2024-05-09T04:47:56.536Z,54.07
2024-05-09T04:50:30.403Z,64.50
2024-05-09T04:53:03.378Z,57.20
2024-05-09T04:55:30.429Z,65.50
2024-05-09T04:57:57.202Z,62.90
2024-05-09T05:00:32.475Z,75.57
2024-05-09T05:03:05.965Z,70.30
2024-05-09T05:05:33.061Z,65.23
2024-05-09T05:08:00.716Z,69.67
2024-05-09T05:10:33.817Z,62.07
2024-05-09T05:13:24.813Z,66.33
2024-05-09T05:15:52.541Z,66.80
2024-05-09T05:18:19.657Z,67.30
2024-05-09T05:20:46.816Z,73.13
2024-05-09T05:23:14.135Z,78.70
2024-05-09T05:25:41.237Z,72.67
2024-05-09T05:28:08.034Z,65.00
2024-05-09T05:30:35.305Z,78.60
2024-05-09T05:33:02.507Z,77.30
2024-05-09T05:35:29.493Z,61.13
2024-05-09T05:37:56.371Z,68.37
2024-05-09T05:40:32.146Z,68.27
2024-05-09T05:43:02.687Z,70.73
2024-05-09T05:45:29.500Z,69.23
2024-05-09T05:47:56.645Z,71.47
2024-05-09T05:50:32.550Z,71.47
2024-05-09T05:53:03.276Z,66.13
2024-05-09T05:55:30.355Z,74.67
2024-05-09T05:57:57.245Z,67.53
2024-05-09T06:02:54.062Z,76.57
2024-05-09T06:05:21.087Z,71.43
2024-05-09T06:07:47.943Z,59.70
2024-05-09T06:10:21.300Z,64.50
2024-05-09T06:12:52.441Z,78.83
2024-05-09T06:15:19.183Z,63.57
2024-05-09T06:17:46.103Z,65.00
2024-05-09T06:20:20.263Z,54.53
2024-05-09T06:22:50.988Z,54.63
2024-05-09T06:25:17.870Z,58.40
2024-05-09T06:27:44.789Z,67.50
2024-05-09T06:30:24.844Z,54.43
2024-05-09T06:32:56.412Z,56.83
2024-05-09T06:35:23.363Z,56.83
2024-05-09T06:37:50.268Z,56.20
2024-05-09T06:40:21.443Z,56.03
2024-05-09T06:42:54.062Z,62.70
2024-05-09T06:45:20.824Z,59.57
2024-05-09T06:47:47.728Z,57.33
2024-05-09T06:50:23.256Z,55.57
2024-05-09T06:52:51.459Z,59.37
2024-05-09T06:55:18.292Z,53.53
2024-05-09T06:57:45.206Z,53.20
2024-05-09T07:00:19.009Z,56.33
2024-05-09T07:02:54.080Z,54.10
2024-05-09T07:05:20.962Z,57.10
2024-05-09T07:07:47.819Z,54.60
2024-05-09T07:10:21.962Z,53.67
2024-05-09T07:12:55.241Z,55.57
2024-05-09T07:15:21.979Z,63.73
2024-05-09T07:17:48.854Z,55.33
2024-05-09T07:20:23.493Z,46.23
2024-05-09T07:23:03.616Z,52.07
2024-05-09T07:25:41.267Z,48.20
2024-05-09T07:28:08.455Z,46.63
2024-05-09T07:30:35.431Z,45.90
2024-05-09T07:33:03.063Z,50.87
2024-05-09T07:35:30.934Z,41.30
2024-05-09T07:37:58.349Z,40.00
2024-05-09T07:40:32.978Z,45.97
2024-05-09T07:43:03.091Z,37.03
2024-05-09T07:45:45.924Z,36.27
2024-05-09T07:49:59.724Z,39.07
2024-05-09T07:53:42.926Z,24.80
2024-05-09T07:56:13.650Z,26.63
2024-05-09T07:58:40.676Z,22.23
2024-05-09T08:01:07.602Z,26.13
2024-05-09T08:03:34.708Z,21.60
2024-05-09T08:06:01.695Z,18.20
2024-05-09T08:08:28.429Z,17.07
2024-05-09T08:10:55.316Z,20.17
2024-05-09T08:13:22.223Z,16.63
2024-05-09T08:15:49.149Z,21.40
2024-05-09T08:18:16.094Z,18.60
2024-05-09T08:20:42.939Z,18.20
2024-05-09T08:23:09.759Z,16.63
2024-05-09T08:25:36.542Z,17.33
2024-05-09T08:28:03.511Z,14.50
2024-05-09T08:30:36.344Z,17.70
2024-05-09T08:33:05.474Z,13.13
2024-05-09T08:35:32.956Z,12.53
2024-05-09T08:38:00.051Z,15.87
2024-05-09T08:40:34.059Z,13.37
2024-05-09T08:43:03.274Z,20.50
2024-05-09T08:45:30.539Z,14.07
2024-05-09T08:47:57.828Z,12.60
2024-05-09T08:50:32.268Z,10.80
2024-05-09T08:53:05.149Z,9.43
2024-05-09T08:55:32.023Z,11.67
2024-05-09T08:57:59.164Z,13.70
2024-05-09T09:00:33.990Z,9.17
2024-05-09T09:03:04.455Z,9.23
2024-05-09T09:05:31.769Z,11.20
2024-05-09T09:07:58.809Z,8.60
2024-05-09T09:10:31.647Z,10.53
2024-05-09T09:13:00.732Z,15.93
2024-05-09T09:15:27.744Z,8.63
2024-05-09T09:17:54.726Z,9.27
2024-05-09T09:20:28.728Z,11.83
2024-05-09T09:23:00.645Z,10.30
2024-05-09T09:25:27.497Z,9.07
2024-05-09T09:27:54.272Z,8.53
2024-05-09T09:30:31.550Z,8.37
2024-05-09T09:33:03.601Z,8.80
2024-05-09T09:35:30.684Z,9.30
2024-05-09T09:37:57.512Z,8.73
2024-05-09T09:40:30.971Z,13.93
2024-05-09T09:42:59.357Z,12.40
2024-05-09T09:45:26.421Z,12.57
2024-05-09T09:47:53.310Z,10.60
2024-05-09T09:50:27.360Z,12.40
2024-05-09T09:52:58.599Z,9.97
2024-05-09T09:55:25.886Z,13.00
2024-05-09T09:57:52.818Z,11.00
2024-05-09T10:00:24.645Z,8.67
2024-05-09T10:02:57.331Z,10.60
2024-05-09T10:05:24.500Z,8.53
2024-05-09T10:07:51.380Z,15.13
2024-05-09T10:12:46.725Z,8.83
2024-05-09T10:15:14.061Z,10.80
2024-05-09T10:17:40.938Z,11.80
2024-05-09T10:20:14.789Z,10.23
2024-05-09T10:22:51.432Z,15.30
2024-05-09T10:25:18.382Z,11.70
2024-05-09T10:27:45.210Z,10.00
2024-05-09T10:30:17.852Z,9.33
2024-05-09T10:32:54.418Z,10.00
2024-05-09T10:35:22.482Z,8.30
2024-05-09T10:37:51.131Z,10.47
2024-05-09T10:40:25.919Z,11.47
2024-05-09T10:42:56.378Z,8.20
2024-05-09T10:45:24.678Z,14.20
2024-05-09T10:47:51.801Z,24.10
2024-05-09T10:50:25.653Z,17.37
2024-05-09T10:52:55.844Z,12.97
2024-05-09T10:55:22.802Z,17.10
2024-05-09T10:57:49.972Z,13.33
2024-05-09T11:00:27.007Z,14.40
2024-05-09T11:02:57.213Z,14.37
2024-05-09T11:05:24.063Z,12.23
2024-05-09T11:07:50.950Z,20.77
2024-05-09T11:10:27.310Z,11.47
2024-05-09T11:12:58.699Z,9.87
2024-05-09T11:15:25.960Z,10.03
2024-05-09T11:17:52.862Z,10.03
2024-05-09T11:20:26.710Z,12.73
2024-05-09T11:22:56.499Z,12.10
2024-05-09T11:25:23.255Z,9.60
2024-05-09T11:27:50.113Z,21.30
2024-05-09T11:30:24.183Z,16.23
2024-05-09T11:32:56.855Z,9.00
2024-05-09T11:35:24.083Z,12.87
2024-05-09T11:37:50.781Z,16.33
2024-05-09T11:40:25.182Z,11.33
2024-05-09T11:42:55.288Z,11.73
2024-05-09T11:45:22.144Z,10.60
2024-05-09T11:47:48.999Z,10.47
2024-05-09T11:50:22.637Z,10.57
2024-05-09T11:52:56.247Z,12.50
2024-05-09T11:55:27.374Z,10.90
2024-05-09T11:57:55.142Z,8.63
2024-05-09T12:00:29.552Z,12.87
2024-05-09T12:03:05.004Z,11.30
2024-05-09T12:05:32.631Z,10.20
2024-05-09T12:07:59.638Z,7.93
2024-05-09T12:10:32.802Z,10.90
2024-05-09T12:13:02.389Z,10.87
2024-05-09T12:15:29.619Z,13.10
2024-05-09T12:17:58.931Z,14.63
2024-05-09T12:20:35.427Z,17.57
2024-05-09T12:23:05.205Z,12.20
2024-05-09T12:25:32.048Z,13.40
2024-05-09T12:27:58.975Z,11.03
2024-05-09T12:30:34.973Z,13.50
2024-05-09T12:33:05.395Z,10.90
2024-05-09T12:35:32.330Z,11.97
2024-05-09T12:37:59.167Z,9.90
2024-05-09T12:40:33.446Z,11.40
2024-05-09T12:43:03.280Z,12.90
2024-05-09T12:45:30.112Z,11.57
2024-05-09T12:47:56.979Z,10.57
2024-05-09T12:50:31.033Z,8.23
2024-05-09T12:52:59.801Z,10.53
2024-05-09T12:55:27.971Z,9.30
2024-05-09T12:57:55.045Z,12.70
2024-05-09T13:00:28.186Z,11.87
2024-05-09T13:03:00.956Z,9.23
2024-05-09T13:05:28.500Z,13.90
2024-05-09T13:07:56.866Z,10.00
2024-05-09T13:10:30.842Z,19.43
2024-05-09T13:13:00.180Z,15.47
2024-05-09T13:15:27.349Z,10.37
2024-05-09T13:17:56.351Z,10.40
2024-05-09T13:20:29.661Z,9.80
2024-05-09T13:22:59.981Z,10.60
2024-05-09T13:25:26.738Z,6.80
2024-05-09T13:27:53.468Z,6.60
2024-05-09T13:30:29.039Z,6.73
2024-05-09T13:33:04.070Z,12.43
2024-05-09T13:35:32.065Z,14.93
2024-05-09T13:37:58.929Z,11.83
2024-05-09T13:40:32.741Z,8.53
2024-05-09T13:43:02.324Z,12.70
2024-05-09T13:45:29.340Z,8.23
2024-05-09T13:47:56.420Z,8.40
2024-05-09T13:50:31.578Z,10.63
2024-05-09T13:53:02.234Z,8.43
2024-05-09T13:55:29.081Z,8.23
2024-05-09T13:57:56.266Z,8.17
2024-05-09T14:00:37.455Z,9.13
2024-05-09T14:03:10.142Z,9.33
2024-05-09T14:05:37.195Z,8.10
2024-05-09T14:08:04.224Z,6.97
2024-05-09T14:10:32.216Z,9.27
2024-05-09T14:12:59.525Z,7.13
2024-05-09T14:15:26.530Z,12.50
2024-05-09T14:17:53.387Z,9.57
2024-05-09T14:20:30.001Z,9.23
2024-05-09T14:22:58.733Z,11.23
2024-05-09T14:25:26.635Z,6.13
2024-05-09T14:27:55.271Z,5.90
2024-05-09T14:30:30.658Z,9.27
2024-05-09T14:33:03.475Z,19.43
2024-05-09T14:35:30.354Z,6.80
2024-05-09T14:37:57.106Z,9.87
2024-05-09T14:40:36.525Z,10.47
2024-05-09T14:43:08.634Z,9.90
2024-05-09T14:45:35.831Z,7.37
2024-05-09T14:48:03.166Z,7.47
2024-05-09T14:50:36.022Z,9.03
2024-05-09T14:53:06.401Z,5.93
2024-05-09T14:55:35.628Z,6.40
2024-05-09T14:58:02.980Z,9.43
2024-05-09T15:00:35.474Z,10.20
2024-05-09T15:03:03.708Z,7.70
2024-05-09T15:05:30.675Z,6.17
2024-05-09T15:07:57.768Z,8.57
2024-05-09T15:10:33.615Z,12.27
2024-05-09T15:13:02.859Z,5.77
2024-05-09T15:15:29.960Z,4.60
2024-05-09T15:17:57.162Z,7.53
2024-05-09T15:20:31.312Z,5.57
2024-05-09T15:23:02.342Z,7.40
2024-05-09T15:25:29.460Z,8.37
2024-05-09T15:27:56.457Z,5.70
2024-05-09T15:30:30.436Z,6.73
2024-05-09T15:32:59.979Z,13.00
2024-05-09T15:35:27.061Z,6.57
2024-05-09T15:37:53.944Z,11.13
2024-05-09T15:40:30.596Z,6.03
2024-05-09T15:43:04.778Z,4.73
2024-05-09T15:45:31.956Z,6.50
2024-05-09T15:47:59.107Z,4.93
2024-05-09T15:50:35.658Z,7.90
2024-05-09T15:53:06.998Z,7.30
2024-05-09T15:55:34.852Z,4.70
2024-05-09T15:58:02.158Z,6.00
2024-05-09T16:00:37.385Z,7.60
2024-05-09T16:03:07.790Z,8.87
2024-05-09T16:05:34.720Z,5.70
2024-05-09T16:08:01.698Z,8.90
2024-05-09T16:10:32.663Z,8.00
2024-05-09T16:13:01.138Z,7.70
2024-05-09T16:15:28.114Z,9.90
2024-05-09T16:17:55.339Z,5.47
2024-05-09T16:20:33.759Z,9.23
2024-05-09T16:23:06.452Z,6.80
2024-05-09T16:25:33.335Z,6.90
2024-05-09T16:28:00.687Z,6.40
2024-05-09T16:30:34.089Z,6.90
2024-05-09T16:33:03.221Z,7.43
2024-05-09T16:35:30.550Z,6.60
2024-05-09T16:37:57.460Z,12.33
2024-05-09T16:40:36.113Z,4.70
2024-05-09T16:43:06.981Z,3.80
2024-05-09T16:45:34.334Z,5.70
2024-05-09T16:48:01.365Z,5.43
2024-05-09T16:50:32.732Z,8.33
2024-05-09T16:53:01.427Z,9.77
2024-05-09T16:55:28.302Z,15.00
2024-05-09T16:57:55.232Z,3.93
2024-05-09T17:00:31.524Z,5.40
2024-05-09T17:03:06.966Z,9.00
2024-05-09T17:05:34.464Z,7.50
2024-05-09T17:08:01.672Z,6.23
2024-05-09T17:10:32.999Z,10.03
2024-05-09T17:13:01.888Z,4.90
2024-05-09T17:15:28.792Z,5.63
2024-05-09T17:17:55.623Z,5.50
2024-05-09T17:20:29.662Z,5.00
2024-05-09T17:23:00.805Z,11.53
2024-05-09T17:25:27.607Z,11.10
2024-05-09T17:27:55.552Z,5.57
2024-05-09T17:30:31.839Z,6.33
2024-05-09T17:33:02.589Z,5.20
2024-05-09T17:35:29.469Z,9.47
2024-05-09T17:37:56.800Z,10.03
2024-05-09T17:42:53.416Z,9.47
2024-05-09T17:45:20.633Z,3.93
2024-05-09T17:47:47.755Z,6.40
2024-05-09T17:50:21.037Z,7.17
2024-05-09T17:52:53.983Z,6.00
2024-05-09T17:55:21.414Z,7.17
2024-05-09T17:57:48.533Z,6.67
2024-05-09T18:00:24.522Z,7.80
2024-05-09T18:03:00.498Z,4.97
2024-05-09T18:05:29.083Z,12.27
2024-05-09T18:07:57.023Z,5.70
2024-05-09T18:10:29.989Z,11.10
2024-05-09T18:13:02.919Z,10.27
2024-05-09T18:15:29.813Z,10.90
2024-05-09T18:17:56.750Z,4.93
2024-05-09T18:20:33.116Z,11.63
2024-05-09T18:23:08.259Z,7.03
2024-05-09T18:25:35.152Z,6.10
2024-05-09T18:28:02.063Z,7.07
2024-05-09T18:30:34.412Z,8.43
2024-05-09T18:33:03.599Z,4.80
2024-05-09T18:35:30.549Z,3.70
2024-05-09T18:37:57.303Z,7.47
2024-05-09T18:40:31.347Z,6.73
2024-05-09T18:43:02.332Z,13.20
2024-05-09T18:45:29.188Z,7.47
2024-05-09T18:47:56.048Z,10.23
2024-05-09T18:50:31.944Z,17.20
2024-05-09T18:53:03.523Z,8.23
2024-05-09T18:55:30.427Z,8.70
2024-05-09T18:57:57.414Z,8.33
2024-05-09T19:00:33.275Z,8.67
2024-05-09T19:03:06.000Z,7.37
2024-05-09T19:05:33.537Z,6.17
2024-05-09T19:08:00.662Z,7.53
2024-05-09T19:10:33.918Z,5.63
2024-05-09T19:13:05.409Z,8.13
2024-05-09T19:15:35.884Z,7.93
2024-05-09T19:18:03.043Z,12.13
2024-05-09T19:20:34.350Z,7.73
2024-05-09T19:23:02.839Z,9.80
2024-05-09T19:25:29.829Z,7.20
2024-05-09T19:27:56.661Z,8.50
2024-05-09T19:30:30.514Z,18.60
2024-05-09T19:33:05.182Z,7.43
2024-05-09T19:35:32.517Z,7.60
2024-05-09T19:37:59.340Z,15.80
2024-05-09T19:40:31.384Z,9.67
2024-05-09T19:43:00.355Z,8.33
2024-05-09T19:45:27.370Z,9.70
2024-05-09T19:47:54.584Z,9.87
2024-05-09T19:50:30.235Z,11.97
2024-05-09T19:53:03.318Z,8.87
2024-05-09T19:55:30.104Z,11.77
2024-05-09T19:57:57.229Z,6.40
2024-05-09T20:00:32.523Z,10.77
2024-05-09T20:03:03.067Z,8.87
2024-05-09T20:05:31.238Z,9.77
2024-05-09T20:07:58.259Z,12.57
2024-05-09T20:10:31.405Z,18.67
2024-05-09T20:13:00.478Z,17.63
2024-05-09T20:15:27.392Z,12.17
2024-05-09T20:17:55.130Z,9.63
2024-05-09T20:22:51.986Z,20.90
2024-05-09T20:25:18.867Z,11.20
2024-05-09T20:27:45.902Z,14.97
2024-05-09T20:30:17.274Z,8.87
2024-05-09T20:32:51.844Z,11.73
2024-05-09T20:35:18.808Z,11.40
2024-05-09T20:37:45.673Z,14.10
2024-05-09T20:40:21.109Z,23.97
2024-05-09T20:42:52.422Z,9.00
2024-05-09T20:45:19.356Z,10.20
2024-05-09T20:47:46.295Z,17.63
2024-05-09T20:50:23.092Z,14.13
2024-05-09T20:52:56.154Z,15.10
2024-05-09T20:55:23.039Z,13.00
2024-05-09T20:57:49.936Z,14.03
2024-05-09T21:00:19.274Z,13.57
2024-05-09T21:02:52.586Z,16.13
2024-05-09T21:05:19.714Z,13.07
2024-05-09T21:07:46.755Z,13.83
2024-05-09T21:10:19.425Z,10.57
2024-05-09T21:12:49.572Z,12.87
2024-05-09T21:15:16.437Z,14.73
2024-05-09T21:17:43.438Z,10.47
2024-05-09T21:20:17.022Z,13.77
2024-05-09T21:22:47.423Z,14.03
2024-05-09T21:25:14.404Z,15.10
2024-05-09T21:27:41.446Z,16.27
2024-05-09T21:30:13.271Z,16.40
2024-05-09T21:32:45.726Z,18.23
2024-05-09T21:35:12.703Z,13.80
2024-05-09T21:37:39.493Z,12.93
2024-05-09T21:40:11.288Z,13.77
2024-05-09T21:42:40.822Z,17.03
2024-05-09T21:45:07.704Z,10.50
2024-05-09T21:47:34.616Z,16.60
2024-05-09T21:50:01.481Z,19.53
2024-05-09T21:52:28.311Z,16.60
2024-05-09T21:54:55.094Z,13.70
2024-05-09T21:57:22.101Z,15.47
2024-05-09T21:59:48.856Z,18.03
2024-05-09T22:02:15.863Z,19.80
2024-05-09T22:04:42.994Z,18.90
2024-05-09T22:07:10.062Z,14.67
2024-05-09T22:09:36.988Z,11.07
2024-05-09T22:12:04.808Z,15.40
2024-05-09T22:14:31.920Z,18.03
2024-05-09T22:16:58.860Z,18.10
2024-05-09T22:19:25.704Z,15.77
2024-05-09T22:21:52.754Z,16.30
2024-05-09T22:24:19.525Z,17.20
2024-05-09T22:26:46.282Z,11.83
2024-05-09T22:29:12.967Z,18.30
2024-05-09T22:31:39.674Z,11.00
2024-05-09T22:34:06.552Z,13.70
2024-05-09T22:36:33.695Z,15.47
2024-05-09T22:39:00.513Z,28.27
2024-05-09T22:41:27.523Z,17.03
2024-05-09T22:43:54.515Z,14.60
2024-05-09T22:46:21.309Z,14.03
2024-05-09T22:48:48.167Z,21.73
2024-05-09T22:51:14.986Z,14.73
2024-05-09T22:53:41.793Z,15.27
2024-05-09T22:56:08.598Z,12.90
2024-05-09T22:58:35.376Z,15.30
2024-05-09T23:01:02.244Z,13.33
2024-05-09T23:03:29.103Z,14.20
2024-05-09T23:05:55.948Z,25.93
2024-05-09T23:08:22.745Z,13.10
2024-05-09T23:10:49.720Z,15.70
2024-05-09T23:13:16.698Z,19.13
2024-05-09T23:15:43.655Z,14.50
2024-05-09T23:18:10.785Z,16.57
2024-05-09T23:20:39.694Z,14.93
2024-05-09T23:23:07.324Z,16.90
2024-05-09T23:25:34.234Z,14.47
2024-05-09T23:28:01.197Z,18.13
2024-05-09T23:30:34.704Z,14.83
2024-05-09T23:33:05.874Z,18.50
2024-05-09T23:35:32.902Z,17.20
2024-05-09T23:37:59.719Z,17.27
2024-05-09T23:40:35.044Z,19.37
2024-05-09T23:43:05.873Z,26.10
2024-05-09T23:45:32.792Z,14.37
2024-05-09T23:47:59.950Z,20.03
2024-05-09T23:50:34.026Z,21.57
2024-05-09T23:53:03.704Z,23.03
2024-05-09T23:55:31.445Z,17.77
2024-05-09T23:57:58.566Z,31.00
